Time;durP1;ratioP1;P1;durP2;ratioP2;P2;SDS_P1;SDS_P2;PMS_P1;PMS_P2;Temp;Humidity;BMP_temperature;BMP_pressure;BME280_temperature;BME280_humidity;BME280_pressure;Samples;Min_cycle;Max_cycle;Signal;HPM_P1;HPM_P2
2023/08/10 00:00:16;;;;;;;;;;;;;;;22.15;47.35;101996.72;4954197;29;19915;-72
2023/08/10 00:02:42;;;;;;;;;;;;;;;22.13;47.66;101993.47;4953930;28;19969;-72
2023/08/10 00:05:07;;;;;;;;;;;;;;;22.10;47.44;102000.38;4950247;29;19926;-75
2023/08/10 00:07:34;;;;;;;;;;;;;;;22.09;47.19;102003.41;4951998;29;19930;-71
2023/08/10 00:10:01;;;;;;;;;;;;;;;22.06;47.58;102001.25;4952923;28;20005;-71
2023/08/10 00:12:26;;;;;;;;;;;;;;;22.04;47.75;102001.50;4953097;28;19930;-71
2023/08/10 00:14:51;;;;;;;;;;;;;;;22.02;47.50;101999.06;4945205;28;20264;-72
2023/08/10 00:17:17;;;;;;;;;;;;;;;21.99;47.68;101990.56;4948549;28;19933;-71
2023/08/10 00:19:42;;;;;;;;;;;;;;;21.96;47.68;101991.97;4943181;29;20312;-71
2023/08/10 00:22:07;;;;;;;;;;;;;;;21.95;47.77;102006.03;4951374;28;19919;-75
2023/08/10 00:24:33;;;;;;;;;;;;;;;21.93;47.38;102003.53;4967970;28;20425;-72
2023/08/10 00:26:58;;;;;;;;;;;;;;;21.91;47.78;101994.75;4952871;29;19922;-71
2023/08/10 00:29:23;;;;;;;;;;;;;;;21.88;47.92;101989.84;4951228;29;19923;-71
2023/08/10 00:31:49;;;;;;;;;;;;;;;21.87;47.45;101999.19;4950655;28;21147;-71
2023/08/10 00:34:15;;;;;;;;;;;;;;;21.85;47.44;101997.84;4952174;29;20008;-71
2023/08/10 00:36:40;;;;;;;;;;;;;;;21.83;47.76;102001.69;4953760;28;20371;-72
2023/08/10 00:39:05;;;;;;;;;;;;;;;21.81;47.62;102006.66;4950150;29;19922;-71
2023/08/10 00:41:31;;;;;;;;;;;;;;;21.78;48.04;102004.50;4952871;28;20025;-71
2023/08/10 00:43:56;;;;;;;;;;;;;;;21.78;47.68;102006.44;4948139;28;19919;-72
2023/08/10 00:46:21;;;;;;;;;;;;;;;21.75;47.76;102002.34;4949947;29;19972;-72
2023/08/10 00:48:47;;;;;;;;;;;;;;;21.73;48.02;101998.22;4949884;29;19984;-72
2023/08/10 00:51:12;;;;;;;;;;;;;;;21.72;47.60;101999.31;4949688;28;20021;-75
2023/08/10 00:53:39;;;;;;;;;;;;;;;21.69;47.75;101997.16;4953057;29;19993;-72
2023/08/10 00:56:04;;;;;;;;;;;;;;;21.67;47.73;101997.44;4950338;29;20004;-71
2023/08/10 00:58:32;;;;;;;;;;;;;;;21.65;47.89;102004.34;4952072;28;20344;-71
2023/08/10 01:00:58;;;;;;;;;;;;;;;21.64;48.04;102002.69;4950088;29;19941;-71
2023/08/10 01:03:23;;;;;;;;;;;;;;;21.61;48.24;102004.09;4950565;29;19966;-71
2023/08/10 01:05:55;;;;;;;;;;;;;;;21.59;47.78;102007.09;4948882;29;19962;-71
2023/08/10 01:08:25;;;;;;;;;;;;;;;21.57;48.23;102006.59;4951858;28;19923;-71
2023/08/10 01:11:05;;;;;;;;;;;;;;;21.55;48.14;101997.81;4966218;28;19956;-71
2023/08/10 01:13:40;;;;;;;;;;;;;;;21.54;48.20;102000.84;4937417;29;20419;-72
2023/08/10 01:16:08;;;;;;;;;;;;;;;21.52;47.82;101997.53;4948358;29;20030;-72
2023/08/10 01:18:34;;;;;;;;;;;;;;;21.49;47.84;101995.38;4948688;29;19929;-71
2023/08/10 01:21:00;;;;;;;;;;;;;;;21.48;48.13;101997.31;4950749;28;19915;-71
2023/08/10 01:23:30;;;;;;;;;;;;;;;21.46;47.92;101991.25;4951186;28;19922;-71
2023/08/10 01:25:56;;;;;;;;;;;;;;;21.44;48.43;101989.91;4951687;29;19969;-71
2023/08/10 01:28:22;;;;;;;;;;;;;;;21.43;48.38;102002.84;4951450;28;20056;-71
2023/08/10 01:30:48;;;;;;;;;;;;;;;21.42;48.29;102003.97;4953388;29;20017;-72
2023/08/10 01:33:13;;;;;;;;;;;;;;;21.40;48.18;101997.91;4949989;28;19946;-71
2023/08/10 01:35:39;;;;;;;;;;;;;;;21.37;48.51;102002.03;4946747;29;19922;-72
2023/08/10 01:38:04;;;;;;;;;;;;;;;21.36;48.00;101996.81;4953339;28;19922;-71
2023/08/10 01:40:30;;;;;;;;;;;;;;;21.34;48.04;101994.34;4951397;28;19998;-71
2023/08/10 01:42:56;;;;;;;;;;;;;;;21.33;48.45;101998.19;4950554;29;19973;-72
2023/08/10 01:45:21;;;;;;;;;;;;;;;21.32;48.21;102001.25;4952296;29;19914;-71
2023/08/10 01:47:49;;;;;;;;;;;;;;;21.30;48.31;102001.53;4950453;28;19930;-72
2023/08/10 01:50:16;;;;;;;;;;;;;;;21.29;48.63;102012.78;4948769;29;20009;-71
2023/08/10 01:52:45;;;;;;;;;;;;;;;21.27;48.13;102015.84;4947771;28;19918;-72
2023/08/10 01:55:11;;;;;;;;;;;;;;;21.25;48.41;102009.78;4952519;29;19919;-71
2023/08/10 01:57:36;;;;;;;;;;;;;;;21.24;48.61;102008.13;4948786;28;19934;-71
2023/08/10 02:00:02;;;;;;;;;;;;;;;21.22;48.62;102015.03;4953168;28;19929;-71
2023/08/10 02:02:28;;;;;;;;;;;;;;;21.21;48.24;102013.38;4951536;28;20017;-72
2023/08/10 02:04:53;;;;;;;;;;;;;;;21.18;48.58;102015.59;4951499;29;20004;-72
2023/08/10 02:07:19;;;;;;;;;;;;;;;21.17;48.46;102015.91;4951208;29;20013;-75
2023/08/10 02:09:44;;;;;;;;;;;;;;;21.15;48.77;102018.09;4952842;28;19965;-72
2023/08/10 02:12:09;;;;;;;;;;;;;;;21.13;48.45;102018.38;4951846;29;19945;-72
2023/08/10 02:14:35;;;;;;;;;;;;;;;21.12;48.73;102022.22;4948465;28;19918;-71
2023/08/10 02:17:00;;;;;;;;;;;;;;;21.10;48.69;102024.44;4950911;29;20001;-72
2023/08/10 02:19:25;;;;;;;;;;;;;;;21.08;48.86;102023.88;4947910;28;20282;-72
2023/08/10 02:21:52;;;;;;;;;;;;;;;21.07;48.41;102026.94;4953639;28;19930;-71
2023/08/10 02:24:17;;;;;;;;;;;;;;;21.05;48.65;102013.47;4954464;28;19937;-73
2023/08/10 02:26:42;;;;;;;;;;;;;;;21.03;48.84;102017.59;4955034;29;19929;-71
2023/08/10 02:29:08;;;;;;;;;;;;;;;21.02;48.42;102015.97;4954730;29;19922;-72
2023/08/10 02:31:33;;;;;;;;;;;;;;;21.00;48.53;102012.69;4955752;28;20375;-72
2023/08/10 02:33:58;;;;;;;;;;;;;;;20.98;48.57;102015.69;4952493;29;20482;-71
2023/08/10 02:36:24;;;;;;;;;;;;;;;20.97;48.69;102014.06;4970191;28;20327;-72
2023/08/10 02:38:49;;;;;;;;;;;;;;;20.95;48.57;102013.53;4952564;29;19941;-71
2023/08/10 02:41:14;;;;;;;;;;;;;;;20.94;48.78;102022.84;4956220;29;20350;-72
2023/08/10 02:43:39;;;;;;;;;;;;;;;20.92;48.64;102011.34;4953594;28;19919;-71
2023/08/10 02:46:05;;;;;;;;;;;;;;;20.90;48.95;102019.03;4953471;29;20267;-71
2023/08/10 02:48:30;;;;;;;;;;;;;;;20.88;48.75;102021.25;4955374;29;19918;-71
2023/08/10 02:50:55;;;;;;;;;;;;;;;20.87;48.81;102020.44;4954445;29;19923;-71
2023/08/10 02:53:20;;;;;;;;;;;;;;;20.86;48.67;102020.69;4955664;29;20287;-71
2023/08/10 02:55:46;;;;;;;;;;;;;;;20.84;48.75;102026.50;4952726;29;20442;-71
2023/08/10 02:58:11;;;;;;;;;;;;;;;20.82;48.77;102027.88;4954673;28;20021;-71
2023/08/10 03:00:37;;;;;;;;;;;;;;;20.80;48.77;102032.81;4952966;28;20472;-73
2023/08/10 03:03:02;;;;;;;;;;;;;;;20.78;49.25;102026.78;4954470;28;19964;-72
2023/08/10 03:05:28;;;;;;;;;;;;;;;20.77;48.95;102030.63;4953796;28;19950;-72
2023/08/10 03:07:53;;;;;;;;;;;;;;;20.74;49.12;102027.34;4954959;28;20294;-72
2023/08/10 03:10:18;;;;;;;;;;;;;;;20.74;49.22;102032.03;4953069;29;19929;-71
2023/08/10 03:12:43;;;;;;;;;;;;;;;20.71;48.89;102027.91;4953561;29;19922;-72
2023/08/10 03:15:11;;;;;;;;;;;;;;;20.70;48.79;102025.44;4954775;29;19929;-72
2023/08/10 03:17:37;;;;;;;;;;;;;;;20.67;49.28;102026.81;4953210;28;19929;-71
2023/08/10 03:20:06;;;;;;;;;;;;;;;20.66;48.89;102021.59;4953285;28;19923;-72
2023/08/10 03:22:31;;;;;;;;;;;;;;;20.65;49.01;102025.44;4953760;29;19925;-71
2023/08/10 03:24:57;;;;;;;;;;;;;;;20.62;49.36;102026.84;4955487;29;19918;-71
2023/08/10 03:27:22;;;;;;;;;;;;;;;20.61;48.99;102027.91;4953346;28;19977;-73
2023/08/10 03:29:47;;;;;;;;;;;;;;;20.58;49.03;102017.50;4954629;28;19952;-73
2023/08/10 03:32:12;;;;;;;;;;;;;;;20.57;49.07;102020.53;4952846;28;19919;-75
2023/08/10 03:34:38;;;;;;;;;;;;;;;20.56;49.21;102018.88;4954489;28;20277;-71
2023/08/10 03:37:03;;;;;;;;;;;;;;;20.53;49.35;102012.81;4955125;29;20029;-71
2023/08/10 03:39:29;;;;;;;;;;;;;;;20.52;49.14;102016.66;4952741;28;19926;-75
2023/08/10 03:41:54;;;;;;;;;;;;;;;20.49;49.03;102011.75;4955291;29;19923;-71
2023/08/10 03:44:19;;;;;;;;;;;;;;;20.47;49.00;102008.44;4952427;29;19986;-71
2023/08/10 03:46:45;;;;;;;;;;;;;;;20.45;48.98;102010.66;4952838;29;20380;-71
2023/08/10 03:49:10;;;;;;;;;;;;;;;20.45;48.99;102018.06;4953204;29;20255;-71
2023/08/10 03:51:35;;;;;;;;;;;;;;;20.43;49.32;102021.06;4954088;29;19977;-71
2023/08/10 03:54:00;;;;;;;;;;;;;;;20.42;49.10;102024.13;4945320;29;20390;-71
2023/08/10 03:56:26;;;;;;;;;;;;;;;20.40;49.50;102023.56;4952479;29;19964;-71
2023/08/10 03:58:51;;;;;;;;;;;;;;;20.39;49.46;102024.69;4951585;28;20306;-72
2023/08/10 04:01:17;;;;;;;;;;;;;;;20.36;49.37;102031.53;4954672;29;19954;-72
2023/08/10 04:03:43;;;;;;;;;;;;;;;20.34;49.53;102027.44;4943406;29;19923;-71
2023/08/10 04:06:08;;;;;;;;;;;;;;;20.33;49.16;102034.81;4937179;29;19930;-71
2023/08/10 04:08:33;;;;;;;;;;;;;;;20.31;49.42;102035.13;4951537;28;19930;-71
2023/08/10 04:10:59;;;;;;;;;;;;;;;20.29;49.28;102036.50;4952128;28;19926;-71
2023/08/10 04:13:24;;;;;;;;;;;;;;;20.27;49.56;102034.00;4953727;28;20307;-72
2023/08/10 04:15:50;;;;;;;;;;;;;;;20.25;49.59;102036.19;4953348;28;19922;-72
2023/08/10 04:18:15;;;;;;;;;;;;;;;20.25;49.19;102038.13;4953693;28;20342;-71
2023/08/10 04:20:40;;;;;;;;;;;;;;;20.23;49.21;102043.88;4950650;28;19923;-71
2023/08/10 04:23:05;;;;;;;;;;;;;;;20.21;49.60;102051.59;4951803;29;19961;-72
2023/08/10 04:25:31;;;;;;;;;;;;;;;20.19;49.16;102053.78;4949988;29;20383;-71
2023/08/10 04:27:57;;;;;;;;;;;;;;;20.17;49.24;102045.00;4952647;29;20290;-71
2023/08/10 04:30:28;;;;;;;;;;;;;;;20.16;49.21;102048.00;4950881;28;21111;-72
2023/08/10 04:32:54;;;;;;;;;;;;;;;20.13;49.28;102043.88;4928453;29;20063;-71
2023/08/10 04:35:19;;;;;;;;;;;;;;;20.13;49.66;102048.56;4951643;29;20307;-71
2023/08/10 04:37:44;;;;;;;;;;;;;;;20.09;49.25;102043.63;4952695;29;19930;-71
2023/08/10 04:40:10;;;;;;;;;;;;;;;20.09;49.53;102042.81;4933994;28;20316;-72
2023/08/10 04:42:38;;;;;;;;;;;;;;;20.07;49.69;102040.34;4951264;29;19925;-75
2023/08/10 04:45:04;;;;;;;;;;;;;;;20.05;49.71;102048.00;4953951;28;19922;-71
2023/08/10 04:47:30;;;;;;;;;;;;;;;20.04;49.26;102053.78;4949787;29;20449;-72
2023/08/10 04:49:55;;;;;;;;;;;;;;;20.03;49.41;102057.63;4953136;29;20013;-71
2023/08/10 04:52:20;;;;;;;;;;;;;;;20.01;49.61;102052.41;4950691;29;19957;-73
2023/08/10 04:54:46;;;;;;;;;;;;;;;20.00;49.47;102055.44;4938605;28;19922;-71
2023/08/10 04:57:11;;;;;;;;;;;;;;;19.99;49.79;102053.78;4937769;29;20303;-75
2023/08/10 04:59:36;;;;;;;;;;;;;;;19.97;49.28;102050.50;4951719;29;19946;-77
2023/08/10 05:02:02;;;;;;;;;;;;;;;19.95;49.73;102048.00;4949380;29;20009;-73
2023/08/10 05:04:27;;;;;;;;;;;;;;;19.93;49.45;102047.47;4968416;28;19922;-73
2023/08/10 05:06:52;;;;;;;;;;;;;;;19.92;49.83;102048.56;4952233;29;19923;-72
2023/08/10 05:09:18;;;;;;;;;;;;;;;19.91;49.73;102049.69;4951118;29;20282;-73
2023/08/10 05:11:43;;;;;;;;;;;;;;;19.89;49.81;102051.88;4959078;28;19918;-72
2023/08/10 05:14:08;;;;;;;;;;;;;;;19.89;49.56;102057.34;4931714;29;19926;-71
2023/08/10 05:16:33;;;;;;;;;;;;;;;19.87;49.47;102059.53;4951377;29;19922;-72
2023/08/10 05:18:59;;;;;;;;;;;;;;;19.84;49.86;102049.13;4950877;28;20798;-77
2023/08/10 05:21:24;;;;;;;;;;;;;;;19.83;49.88;102052.94;4953225;28;19922;-74
2023/08/10 05:23:50;;;;;;;;;;;;;;;19.82;49.61;102057.59;4951291;28;19922;-74
2023/08/10 05:26:15;;;;;;;;;;;;;;;19.80;49.50;102054.31;4952426;28;19931;-72
2023/08/10 05:28:41;;;;;;;;;;;;;;;19.79;49.70;102049.94;4949037;28;20763;-75
2023/08/10 05:31:06;;;;;;;;;;;;;;;19.78;49.83;102052.94;4952874;29;19961;-74
2023/08/10 05:33:31;;;;;;;;;;;;;;;19.77;49.55;102057.59;4934127;29;20339;-72
2023/08/10 05:35:57;;;;;;;;;;;;;;;19.75;49.65;102050.75;4947598;29;20017;-74
2023/08/10 05:38:22;;;;;;;;;;;;;;;19.74;49.58;102049.94;4948116;29;19922;-73
2023/08/10 05:40:47;;;;;;;;;;;;;;;19.74;49.99;102055.41;4947231;29;20145;-76
2023/08/10 05:43:12;;;;;;;;;;;;;;;19.73;49.97;102052.94;4950699;29;19974;-73
2023/08/10 05:45:38;;;;;;;;;;;;;;;19.72;49.60;102054.03;4935798;29;20385;-73
2023/08/10 05:48:09;;;;;;;;;;;;;;;19.71;49.75;102052.41;4949334;28;19926;-73
2023/08/10 05:50:34;;;;;;;;;;;;;;;19.69;49.62;102055.41;4952437;29;19925;-72
2023/08/10 05:52:59;;;;;;;;;;;;;;;19.68;50.01;102056.53;4952062;29;19922;-73
2023/08/10 05:55:25;;;;;;;;;;;;;;;19.67;49.73;102052.94;4946630;28;19930;-72
2023/08/10 05:57:50;;;;;;;;;;;;;;;19.67;50.07;102057.59;4948312;28;20073;-73
2023/08/10 06:00:16;;;;;;;;;;;;;;;19.65;50.09;102059.75;4962291;28;20319;-72
2023/08/10 06:02:42;;;;;;;;;;;;;;;19.65;50.08;102055.13;4948670;29;22044;-73
2023/08/10 06:05:08;;;;;;;;;;;;;;;19.65;49.83;102057.00;4945651;29;19940;-72
2023/08/10 06:07:34;;;;;;;;;;;;;;;19.63;49.77;102057.28;4946443;28;19922;-72
2023/08/10 06:09:59;;;;;;;;;;;;;;;19.63;50.17;102056.44;4952862;29;19922;-72
2023/08/10 06:12:24;;;;;;;;;;;;;;;19.62;49.85;102050.16;4960397;28;20283;-73
2023/08/10 06:14:50;;;;;;;;;;;;;;;19.62;50.21;102054.81;4945257;29;19926;-72
2023/08/10 06:17:15;;;;;;;;;;;;;;;19.61;50.01;102051.25;4948384;28;20032;-72
2023/08/10 06:19:40;;;;;;;;;;;;;;;19.60;50.21;102051.50;4951184;28;20968;-75
2023/08/10 06:22:06;;;;;;;;;;;;;;;19.61;49.87;102053.19;4953315;28;20195;-73
2023/08/10 06:24:31;;;;;;;;;;;;;;;19.60;49.81;102043.28;4950421;28;19937;-75
2023/08/10 06:26:57;;;;;;;;;;;;;;;19.61;50.24;102059.47;4946579;28;19940;-72
2023/08/10 06:29:22;;;;;;;;;;;;;;;19.60;50.14;102051.50;4947705;28;19922;-73
2023/08/10 06:31:48;;;;;;;;;;;;;;;19.61;50.00;102053.19;4951580;28;20557;-76
2023/08/10 06:34:13;;;;;;;;;;;;;;;19.61;50.32;102042.22;4950251;28;19926;-74
2023/08/10 06:36:39;;;;;;;;;;;;;;;19.61;50.26;102048.50;4950213;28;19922;-73
2023/08/10 06:39:04;;;;;;;;;;;;;;;19.61;50.03;102043.03;4947498;28;19930;-76
2023/08/10 06:41:30;;;;;;;;;;;;;;;19.62;49.86;102044.66;4951646;29;19918;-73
2023/08/10 06:43:55;;;;;;;;;;;;;;;19.63;50.31;102043.59;4957457;28;19922;-74
2023/08/10 06:46:21;;;;;;;;;;;;;;;19.65;49.91;102048.78;4945578;28;19918;-73
2023/08/10 06:48:47;;;;;;;;;;;;;;;19.65;50.25;102043.31;4944902;29;19927;-74
2023/08/10 06:51:13;;;;;;;;;;;;;;;19.66;50.29;102050.44;4941582;29;19919;-73
2023/08/10 06:53:38;;;;;;;;;;;;;;;19.67;50.42;102046.63;4944794;28;19930;-73
2023/08/10 06:56:05;;;;;;;;;;;;;;;19.69;50.28;102043.63;4942799;29;20003;-75
2023/08/10 06:58:30;;;;;;;;;;;;;;;19.70;50.15;102045.25;4952432;29;19923;-78
2023/08/10 07:00:55;;;;;;;;;;;;;;;19.71;49.92;102047.75;4947725;29;19929;-73
2023/08/10 07:03:21;;;;;;;;;;;;;;;19.73;50.41;102050.19;4947009;29;20425;-72
2023/08/10 07:05:46;;;;;;;;;;;;;;;19.74;49.90;102046.38;4951738;28;19988;-72
2023/08/10 07:08:11;;;;;;;;;;;;;;;19.74;49.82;102040.88;4949063;28;20392;-73
2023/08/10 07:10:37;;;;;;;;;;;;;;;19.74;49.92;102040.88;4944678;29;19922;-72
2023/08/10 07:13:02;;;;;;;;;;;;;;;19.72;50.47;102043.91;4950402;29;19918;-74
2023/08/10 07:15:28;;;;;;;;;;;;;;;19.71;50.11;102047.75;4949470;28;19918;-73
2023/08/10 07:17:54;;;;;;;;;;;;;;;19.72;50.24;102032.13;4941718;28;19925;-75
2023/08/10 07:20:19;;;;;;;;;;;;;;;19.73;50.17;102037.34;4956292;28;19932;-73
2023/08/10 07:22:48;;;;;;;;;;;;;;;19.74;50.30;102032.66;4949333;28;20359;-73
2023/08/10 07:25:16;;;;;;;;;;;;;;;19.78;50.41;102037.34;4949176;29;19915;-73
2023/08/10 07:27:42;;;;;;;;;;;;;;;19.80;50.53;102034.31;4944978;28;20057;-73
2023/08/10 07:30:07;;;;;;;;;;;;;;;19.83;50.24;102044.72;4947279;28;20121;-74
2023/08/10 07:32:33;;;;;;;;;;;;;;;19.86;50.83;102041.44;4949390;28;19968;-72
2023/08/10 07:34:58;;;;;;;;;;;;;;;19.87;50.66;102052.13;4943242;28;20009;-75
2023/08/10 07:37:23;;;;;;;;;;;;;;;19.91;50.96;102048.84;4947612;28;19922;-73
2023/08/10 07:39:48;;;;;;;;;;;;;;;19.95;51.05;102045.28;4948664;28;20026;-73
2023/08/10 07:42:14;;;;;;;;;;;;;;;19.98;51.15;102050.22;4945108;28;19934;-74
2023/08/10 07:44:39;;;;;;;;;;;;;;;20.01;51.05;102040.63;4934937;28;19953;-74
2023/08/10 07:47:04;;;;;;;;;;;;;;;20.04;51.11;102042.81;4934616;29;19923;-75
2023/08/10 07:49:31;;;;;;;;;;;;;;;20.08;50.90;102035.66;4943264;28;20302;-73
2023/08/10 07:51:56;;;;;;;;;;;;;;;20.11;51.18;102035.13;4945535;28;20013;-76
2023/08/10 07:54:22;;;;;;;;;;;;;;;20.14;51.40;102034.59;4963998;28;20386;-73
2023/08/10 07:56:47;;;;;;;;;;;;;;;20.19;51.50;102045.56;4942787;28;19922;-73
2023/08/10 07:59:12;;;;;;;;;;;;;;;20.23;51.50;102043.06;4940657;28;19977;-74
2023/08/10 08:01:38;;;;;;;;;;;;;;;20.27;51.42;102042.25;4947916;28;19926;-73
2023/08/10 08:04:04;;;;;;;;;;;;;;;20.31;51.66;102039.78;4935716;28;19922;-75
2023/08/10 08:06:29;;;;;;;;;;;;;;;20.36;51.46;102041.69;4948553;28;20374;-72
2023/08/10 08:08:55;;;;;;;;;;;;;;;20.41;51.81;102039.75;4948941;28;19918;-73
2023/08/10 08:11:20;;;;;;;;;;;;;;;20.47;52.16;102043.31;4942522;28;19950;-73
2023/08/10 08:13:45;;;;;;;;;;;;;;;20.53;51.65;102045.75;4944118;28;19929;-73
2023/08/10 08:16:11;;;;;;;;;;;;;;;20.59;51.79;102043.03;4943984;28;19930;-75
2023/08/10 08:18:43;;;;;;;;;;;;;;;20.65;52.23;102052.91;4944937;28;19918;-73
2023/08/10 08:21:10;;;;;;;;;;;;;;;20.71;51.78;102046.28;4947328;28;19989;-73
2023/08/10 08:23:35;;;;;;;;;;;;;;;20.78;52.26;102055.06;4947827;28;19965;-74
2023/08/10 08:26:00;;;;;;;;;;;;;;;20.84;52.04;102056.69;4945376;28;19930;-73
2023/08/10 08:28:26;;;;;;;;;;;;;;;20.91;51.82;102053.63;4946635;28;19922;-72
2023/08/10 08:30:51;;;;;;;;;;;;;;;20.98;52.03;102054.16;4948570;29;20013;-73
2023/08/10 08:33:17;;;;;;;;;;;;;;;21.04;51.76;102047.56;4946216;28;19926;-73
2023/08/10 08:35:43;;;;;;;;;;;;;;;21.11;51.63;102056.28;4946047;28;19924;-73
2023/08/10 08:38:09;;;;;;;;;;;;;;;21.20;52.03;102055.72;4947217;28;19926;-73
2023/08/10 08:40:34;;;;;;;;;;;;;;;21.26;51.57;102051.84;4943437;28;20304;-73
2023/08/10 08:43:02;;;;;;;;;;;;;;;21.33;51.78;102044.91;4947048;29;19965;-75
2023/08/10 08:45:28;;;;;;;;;;;;;;;21.41;52.06;102051.78;4945825;28;19925;-73
2023/08/10 08:47:54;;;;;;;;;;;;;;;21.48;52.15;102045.97;4945696;29;19926;-73
2023/08/10 08:50:19;;;;;;;;;;;;;;;21.56;51.66;102045.38;4946518;28;20438;-73
2023/08/10 08:52:45;;;;;;;;;;;;;;;21.63;51.49;102043.13;4947133;28;19926;-73
2023/08/10 08:55:11;;;;;;;;;;;;;;;21.71;52.04;102044.44;4946867;29;20362;-73
2023/08/10 08:57:37;;;;;;;;;;;;;;;21.79;51.77;102035.56;4960569;28;19925;-73
2023/08/10 09:00:03;;;;;;;;;;;;;;;21.87;52.02;102039.63;4947291;29;19922;-75
2023/08/10 09:02:28;;;;;;;;;;;;;;;21.94;51.84;102040.94;4944759;28;19928;-74
2023/08/10 09:04:59;;;;;;;;;;;;;;;22.02;51.76;102032.09;4946689;28;19953;-76
2023/08/10 09:07:24;;;;;;;;;;;;;;;22.11;51.75;102035.03;4955925;28;19953;-72
2023/08/10 09:09:50;;;;;;;;;;;;;;;22.20;51.59;102027.81;4949579;28;20033;-73
2023/08/10 09:12:27;;;;;;;;;;;;;;;22.27;51.64;102027.47;4948683;28;20276;-84
2023/08/10 09:15:12;;;;;;;;;;;;;;;22.36;51.84;102024.91;4943916;29;19918;-75
2023/08/10 09:17:42;;;;;;;;;;;;;;;22.45;51.46;102025.91;4947433;29;20486;-74
2023/08/10 09:20:08;;;;;;;;;;;;;;;22.54;51.64;102037.09;4948104;28;19918;-74
2023/08/10 09:22:35;;;;;;;;;;;;;;;22.63;51.49;102036.19;4949267;28;19929;-74
2023/08/10 09:25:01;;;;;;;;;;;;;;;22.70;51.79;102035.81;4948967;28;19918;-78
2023/08/10 09:27:27;;;;;;;;;;;;;;;22.78;51.86;102028.81;4941256;28;20225;-74
2023/08/10 09:30:10;;;;;;;;;;;;;;;22.87;51.38;102027.06;4950466;28;19918;-75
2023/08/10 09:32:36;;;;;;;;;;;;;;;22.97;51.72;102026.13;4946006;28;21776;-75
2023/08/10 09:35:03;;;;;;;;;;;;;;;23.04;51.39;102015.59;4950205;28;19918;-76
2023/08/10 09:37:28;;;;;;;;;;;;;;;23.14;51.31;102022.91;4948054;29;19933;-75
2023/08/10 09:39:54;;;;;;;;;;;;;;;23.21;51.31;102028.84;4947193;28;19923;-74
2023/08/10 09:42:19;;;;;;;;;;;;;;;23.28;51.10;102030.16;4948784;28;20281;-76
2023/08/10 09:44:46;;;;;;;;;;;;;;;23.38;51.14;102022.81;4949783;28;19965;-74
2023/08/10 09:47:12;;;;;;;;;;;;;;;23.45;51.15;102026.03;4946255;28;19928;-77
2023/08/10 09:49:56;;;;;;;;;;;;;;;23.53;51.35;102026.16;4948122;28;19922;-74
2023/08/10 09:52:21;;;;;;;;;;;;;;;23.61;51.40;102024.69;4946961;28;19926;-73
2023/08/10 09:54:48;;;;;;;;;;;;;;;23.68;51.19;102029.81;4946735;29;19926;-74
2023/08/10 09:57:14;;;;;;;;;;;;;;;23.74;51.14;102023.97;4949156;28;19918;-74
2023/08/10 09:59:40;;;;;;;;;;;;;;;23.83;51.26;102034.31;4946767;28;19977;-72
2023/08/10 10:02:08;;;;;;;;;;;;;;;23.89;51.10;102033.06;4945855;29;20375;-71
2023/08/10 10:04:34;;;;;;;;;;;;;;;23.95;51.02;102027.19;4947148;28;19927;-72
2023/08/10 10:07:00;;;;;;;;;;;;;;;24.02;51.57;102029.56;4962935;28;19926;-71
2023/08/10 10:09:26;;;;;;;;;;;;;;;24.07;51.33;102037.75;4942136;28;20339;-73
2023/08/10 10:11:54;;;;;;;;;;;;;;;24.15;51.06;102041.75;4946848;28;19926;-71
2023/08/10 10:14:19;;;;;;;;;;;;;;;24.22;51.00;102044.09;4942648;29;20012;-70
2023/08/10 10:16:45;;;;;;;;;;;;;;;24.28;50.89;102037.38;4945036;28;19922;-71
2023/08/10 10:19:10;;;;;;;;;;;;;;;24.33;50.84;102035.34;4942305;28;19926;-74
2023/08/10 10:21:35;;;;;;;;;;;;;;;24.39;51.00;102027.78;4945360;28;20353;-70
2023/08/10 10:24:01;;;;;;;;;;;;;;;24.44;51.04;102022.16;4943412;28;19985;-70
2023/08/10 10:26:27;;;;;;;;;;;;;;;24.51;51.35;102030.88;4945268;28;19934;-71
2023/08/10 10:29:11;;;;;;;;;;;;;;;24.55;51.20;102023.63;4945656;28;19926;-70
2023/08/10 10:31:37;;;;;;;;;;;;;;;24.63;51.26;102024.88;4944196;28;19949;-71
2023/08/10 10:34:03;;;;;;;;;;;;;;;24.69;50.82;102020.03;4942660;28;20363;-70
2023/08/10 10:36:31;;;;;;;;;;;;;;;24.73;51.01;102021.88;4943945;28;20026;-73
2023/08/10 10:39:07;;;;;;;;;;;;;;;24.79;50.98;102020.66;4940475;28;19919;-74
2023/08/10 10:41:35;;;;;;;;;;;;;;;24.85;51.01;102015.84;4946164;28;20021;-72
2023/08/10 10:44:04;;;;;;;;;;;;;;;24.90;51.14;102023.22;4949044;29;20291;-73
2023/08/10 10:46:32;;;;;;;;;;;;;;;24.94;50.88;102011.22;4946016;28;19930;-70
2023/08/10 10:49:04;;;;;;;;;;;;;;;24.99;50.94;102019.41;4948630;28;19932;-73
2023/08/10 10:51:30;;;;;;;;;;;;;;;25.04;51.11;102019.28;4947516;28;19926;-74
2023/08/10 10:53:55;;;;;;;;;;;;;;;25.10;50.70;102019.16;4950089;28;20037;-73
2023/08/10 10:56:22;;;;;;;;;;;;;;;25.14;50.55;102017.44;4950743;28;19926;-71
2023/08/10 10:58:50;;;;;;;;;;;;;;;25.19;50.93;102011.81;4950144;28;20390;-71
2023/08/10 11:01:21;;;;;;;;;;;;;;;25.23;50.62;102019.19;4945792;28;19914;-74
2023/08/10 11:03:53;;;;;;;;;;;;;;;25.27;50.77;102016.59;4948846;28;20374;-71
2023/08/10 11:06:22;;;;;;;;;;;;;;;25.32;50.94;102004.59;4949792;28;19969;-71
2023/08/10 11:08:50;;;;;;;;;;;;;;;25.36;50.99;102011.97;4962654;28;20379;-74
2023/08/10 11:11:16;;;;;;;;;;;;;;;25.40;50.40;102013.00;4944039;28;19989;-76
2023/08/10 11:13:42;;;;;;;;;;;;;;;25.44;50.87;102013.19;4950946;28;19926;-71
2023/08/10 11:16:07;;;;;;;;;;;;;;;25.48;50.91;102009.47;4950379;29;19925;-71
2023/08/10 11:18:32;;;;;;;;;;;;;;;25.53;50.87;102007.69;4947467;28;20268;-75
2023/08/10 11:20:58;;;;;;;;;;;;;;;25.57;50.64;102006.75;4943600;28;20426;-73
2023/08/10 11:23:23;;;;;;;;;;;;;;;25.61;50.69;102007.78;4947659;29;19928;-76
2023/08/10 11:25:50;;;;;;;;;;;;;;;25.63;50.75;102002.75;4950340;28;20426;-73
2023/08/10 11:28:20;;;;;;;;;;;;;;;25.68;50.58;101993.50;4947916;28;20119;-76
2023/08/10 11:30:46;;;;;;;;;;;;;;;25.71;50.78;101990.13;4949152;29;19918;-73
2023/08/10 11:33:11;;;;;;;;;;;;;;;25.75;50.57;101990.28;4946715;28;19929;-72
2023/08/10 11:35:36;;;;;;;;;;;;;;;25.79;50.28;101994.88;4948923;28;19937;-71
2023/08/10 11:38:02;;;;;;;;;;;;;;;25.85;50.51;102001.13;4946101;28;19929;-72
2023/08/10 11:40:27;;;;;;;;;;;;;;;25.89;50.58;101991.88;4948966;28;19934;-73
2023/08/10 11:43:03;;;;;;;;;;;;;;;25.93;50.69;101989.31;4946090;28;19918;-72
2023/08/10 11:45:29;;;;;;;;;;;;;;;25.98;50.26;101994.72;4948951;28;20390;-72
2023/08/10 11:47:57;;;;;;;;;;;;;;;26.01;50.02;101994.06;4949977;28;19918;-76
2023/08/10 11:50:24;;;;;;;;;;;;;;;26.05;50.27;101995.06;4944005;28;20017;-73
2023/08/10 11:52:49;;;;;;;;;;;;;;;26.08;50.17;102008.28;4947778;29;19932;-72
2023/08/10 11:55:17;;;;;;;;;;;;;;;26.12;50.16;102011.22;4943882;28;19919;-72
2023/08/10 11:57:48;;;;;;;;;;;;;;;26.15;50.08;102012.53;4946296;29;19918;-73
2023/08/10 12:00:21;;;;;;;;;;;;;;;26.18;49.93;101996.09;4947954;29;20302;-73
2023/08/10 12:03:04;;;;;;;;;;;;;;;26.20;49.87;101993.81;4945200;28;19919;-72
2023/08/10 12:05:40;;;;;;;;;;;;;;;26.23;50.17;101992.38;4944093;29;19929;-73
2023/08/10 12:08:07;;;;;;;;;;;;;;;26.24;50.08;101994.03;4948389;28;19919;-72
2023/08/10 12:10:32;;;;;;;;;;;;;;;26.26;49.99;101992.56;4949063;29;19918;-72
2023/08/10 12:13:00;;;;;;;;;;;;;;;26.28;50.01;101984.75;4930338;29;19922;-73
2023/08/10 12:15:25;;;;;;;;;;;;;;;26.29;49.99;101994.69;4945733;28;19918;-73
2023/08/10 12:17:51;;;;;;;;;;;;;;;26.33;50.06;101983.78;4945982;29;19969;-74
2023/08/10 12:20:18;;;;;;;;;;;;;;;26.35;50.03;101984.28;4945886;29;20290;-72
2023/08/10 12:22:43;;;;;;;;;;;;;;;26.39;49.89;101987.25;4940381;28;20001;-71
2023/08/10 12:25:09;;;;;;;;;;;;;;;26.42;49.63;101992.94;4944755;28;20156;-74
2023/08/10 12:27:34;;;;;;;;;;;;;;;26.46;49.64;101993.09;4930979;29;19922;-72
2023/08/10 12:29:59;;;;;;;;;;;;;;;26.49;49.77;101990.53;4947927;29;20021;-73